KBWG/BWG METAR and TAF weather

Enter ICAO airport designator
Station Type Date Time Source
KBWG METAR 2021/05/13 04:53 UTC NOAA

KBWG 130453Z AUTO 04004KT 10SM CLR 09/03 A3031 RMK AO2 SLP263 T00940028


Station Type Date Time Source
KBWG Decoded METAR 2021/05/13 04:53 UTC NOAA

BOWLING GREEN-WARREN CO RGNL, KY, United States (KBWG) 36-58N 086-25W 161M
May 13, 2021 - 12:53 AM EDT / 2021.05.13 0453 UTC
Wind: from the NE (040 degrees) at 5 MPH (4 KT):0
Visibility: 10 mile(s):0
Sky conditions: clear
Temperature: 48.9 F (9.4 C)
Dew Point: 37.0 F (2.8 C)
Relative Humidity: 63%
Pressure (altimeter): 30.31 in. Hg (1026 hPa)
ob: KBWG 130453Z AUTO 04004KT 10SM CLR 09/03 A3031 RMK AO2 SLP263 T00940028
cycle: 5

Station Type Date Time Source
KBWG TAF 2021/05/13 06:24 UTC NOAA

TAF KBWG 130521Z 1306/1406 04005KT P6SM SKC

Example: see airport list